Time;durP1;ratioP1;P1;durP2;ratioP2;P2;SDS_P1;SDS_P2;PMS_P1;PMS_P2;Temp;Humidity;BMP_temperature;BMP_pressure;BME280_temperature;BME280_humidity;BME280_pressure;Samples;Min_cycle;Max_cycle;Signal;HPM_P1;HPM_P2
2022/06/09 00:00:01;;;;;;;30.63;11.98;;;14.80;99.90;;;;;;5083525;28;20134;-73
2022/06/09 00:02:30;;;;;;;26.10;11.52;;;14.80;99.90;;;;;;5051769;28;20114;-73
2022/06/09 00:04:58;;;;;;;25.48;11.73;;;14.80;99.90;;;;;;5066959;28;20048;-73
2022/06/09 00:07:25;;;;;;;24.13;11.38;;;14.80;99.90;;;;;;5067735;28;20062;-73
2022/06/09 00:09:57;;;;;;;29.23;13.55;;;14.70;99.90;;;;;;5049598;28;20040;-73
2022/06/09 00:12:24;;;;;;;25.85;11.85;;;14.70;99.90;;;;;;5064013;28;20048;-74
2022/06/09 00:14:50;;;;;;;29.80;13.52;;;14.70;99.90;;;;;;5067482;28;20044;-72
2022/06/09 00:17:16;;;;;;;32.60;12.77;;;14.70;99.90;;;;;;5064380;28;20474;-74
2022/06/09 00:19:43;;;;;;;30.30;12.77;;;14.70;99.90;;;;;;5089738;28;20080;-73
2022/06/09 00:22:08;;;;;;;26.10;12.20;;;14.70;99.90;;;;;;5081035;28;20040;-73
2022/06/09 00:24:34;;;;;;;32.42;12.82;;;14.70;99.90;;;;;;5064719;28;20054;-73
2022/06/09 00:27:00;;;;;;;29.55;12.65;;;14.70;99.90;;;;;;5088325;28;20114;-73
2022/06/09 00:29:25;;;;;;;27.20;13.02;;;14.60;99.90;;;;;;5086699;28;20556;-73
2022/06/09 00:31:51;;;;;;;27.27;12.75;;;14.70;99.90;;;;;;5066657;28;20524;-74
2022/06/09 00:34:17;;;;;;;23.92;13.48;;;14.70;99.90;;;;;;5069935;28;20028;-73
2022/06/09 00:36:43;;;;;;;26.88;12.57;;;14.60;99.90;;;;;;5053416;28;20090;-74
2022/06/09 00:39:08;;;;;;;26.20;12.45;;;14.60;99.90;;;;;;5068529;28;20051;-73
2022/06/09 00:41:39;;;;;;;37.70;15.23;;;14.60;99.90;;;;;;5067972;28;20066;-74
2022/06/09 00:44:24;;;;;;;31.75;14.25;;;14.60;99.90;;;;;;5070131;28;20122;-73
2022/06/09 00:46:56;;;;;;;34.97;13.50;;;14.50;99.90;;;;;;5066311;28;20517;-74
2022/06/09 00:49:27;;;;;;;33.97;15.30;;;14.50;99.90;;;;;;5066886;28;20044;-74
2022/06/09 00:51:59;;;;;;;26.88;13.32;;;14.60;99.90;;;;;;5085867;28;20404;-74
2022/06/09 00:54:38;;;;;;;33.17;14.75;;;14.60;99.90;;;;;;5051328;28;20123;-74
2022/06/09 00:57:06;;;;;;;29.50;15.65;;;14.60;99.90;;;;;;5070211;28;20381;-74
2022/06/09 00:59:34;;;;;;;32.35;15.02;;;14.60;99.90;;;;;;5051928;28;20130;-73
2022/06/09 01:02:04;;;;;;;31.35;16.13;;;14.60;99.90;;;;;;5051607;28;20043;-73
2022/06/09 01:04:32;;;;;;;33.10;16.23;;;14.60;99.90;;;;;;5070070;28;20048;-74
2022/06/09 01:07:04;;;;;;;33.38;16.25;;;14.60;99.90;;;;;;5068373;28;20331;-74
2022/06/09 01:09:31;;;;;;;33.30;15.98;;;14.50;99.90;;;;;;5068268;28;20051;-74
2022/06/09 01:11:57;;;;;;;39.38;17.00;;;14.60;99.90;;;;;;5064113;28;20044;-73
2022/06/09 01:14:29;;;;;;;31.10;15.73;;;14.50;99.90;;;;;;5063938;28;20044;-74
2022/06/09 01:17:12;;;;;;;36.97;16.67;;;14.50;99.90;;;;;;5064033;28;20044;-74
2022/06/09 01:20:07;;;;;;;38.67;16.95;;;14.50;99.90;;;;;;5046367;28;20044;-73
2022/06/09 01:23:22;;;;;;;32.90;16.33;;;14.50;99.90;;;;;;5064405;28;20126;-73
2022/06/09 01:26:18;;;;;;;35.15;15.52;;;14.50;99.90;;;;;;5083746;28;20408;-74
2022/06/09 01:29:16;;;;;;;36.63;16.90;;;14.40;99.90;;;;;;5065517;28;20408;-73
2022/06/09 01:31:51;;;;;;;36.95;17.83;;;14.40;99.90;;;;;;5046815;28;20599;-74
2022/06/09 01:34:50;;;;;;;36.83;18.20;;;14.40;99.90;;;;;;5050641;28;20043;-74
2022/06/09 01:37:33;;;;;;;35.15;18.02;;;14.40;99.90;;;;;;5082353;28;20038;-74
2022/06/09 01:40:01;;;;;;;45.42;21.38;;;14.40;99.90;;;;;;5044710;28;20131;-74
2022/06/09 01:42:28;;;;;;;41.60;20.55;;;14.40;99.90;;;;;;5065507;28;20051;-74
2022/06/09 01:45:02;;;;;;;42.05;18.70;;;14.40;99.90;;;;;;5064385;28;20407;-73
2022/06/09 01:47:47;;;;;;;37.50;19.67;;;14.40;99.90;;;;;;5081385;28;20119;-74
2022/06/09 01:50:23;;;;;;;41.08;20.30;;;14.30;99.90;;;;;;5049294;28;20040;-74
2022/06/09 01:52:50;;;;;;;36.50;20.02;;;14.40;99.90;;;;;;5080700;28;20036;-74
2022/06/09 01:55:19;;;;;;;43.55;19.92;;;14.30;99.90;;;;;;5065850;28;20044;-74
2022/06/09 01:57:49;;;;;;;49.40;22.55;;;14.30;99.90;;;;;;5063406;28;20095;-74
2022/06/09 02:00:18;;;;;;;50.67;22.55;;;14.30;99.90;;;;;;5052739;28;20055;-74
2022/06/09 02:02:54;;;;;;;43.15;22.35;;;14.30;99.90;;;;;;5064139;28;20047;-73
2022/06/09 02:05:24;;;;;;;44.20;22.80;;;14.30;99.90;;;;;;5083291;28;20336;-74
2022/06/09 02:07:54;;;;;;;41.08;23.35;;;14.30;99.90;;;;;;5051202;28;20036;-73
2022/06/09 02:10:29;;;;;;;37.47;22.00;;;14.30;99.90;;;;;;5082083;28;20127;-74
2022/06/09 02:13:00;;;;;;;38.80;21.52;;;14.30;99.90;;;;;;5049626;28;20047;-73
2022/06/09 02:15:32;;;;;;;42.73;22.20;;;14.30;99.90;;;;;;5066910;28;20044;-74
2022/06/09 02:18:06;;;;;;;43.42;22.45;;;14.20;99.90;;;;;;5085959;28;20032;-74
2022/06/09 02:20:34;;;;;;;40.75;21.55;;;14.20;99.90;;;;;;5075615;28;20435;-74
2022/06/09 02:22:59;;;;;;;42.38;21.05;;;14.20;99.90;;;;;;5063752;28;20045;-74
2022/06/09 02:25:25;;;;;;;40.95;22.92;;;14.20;99.90;;;;;;5065728;28;20043;-73
2022/06/09 02:27:51;;;;;;;45.90;24.10;;;14.20;99.90;;;;;;5067932;28;20036;-73
2022/06/09 02:30:16;;;;;;;47.88;24.30;;;14.20;99.90;;;;;;5063776;28;20047;-73
2022/06/09 02:32:42;;;;;;;41.67;23.02;;;14.20;99.90;;;;;;5065310;28;20060;-74
2022/06/09 02:35:08;;;;;;;45.55;21.85;;;14.20;99.90;;;;;;5064875;28;20043;-73
2022/06/09 02:37:34;;;;;;;38.20;22.75;;;14.20;99.90;;;;;;5060911;28;20044;-74
2022/06/09 02:40:00;;;;;;;50.10;25.13;;;14.20;99.90;;;;;;5059527;28;20036;-74
2022/06/09 02:42:26;;;;;;;42.05;22.30;;;14.20;99.90;;;;;;5066086;28;20621;-74
2022/06/09 02:44:51;;;;;;;45.92;23.10;;;14.20;99.90;;;;;;5076479;28;20496;-73
2022/06/09 02:47:18;;;;;;;44.55;22.02;;;14.20;99.90;;;;;;5080128;28;20054;-73
2022/06/09 02:49:44;;;;;;;54.17;24.45;;;14.20;99.90;;;;;;5085945;28;20412;-73
2022/06/09 02:52:10;;;;;;;45.65;23.50;;;14.20;99.90;;;;;;5086557;28;20040;-73
2022/06/09 02:54:36;;;;;;;38.90;23.05;;;14.20;99.90;;;;;;5066202;28;20040;-73
2022/06/09 02:57:02;;;;;;;39.65;22.85;;;14.20;99.90;;;;;;5082968;28;20040;-73
2022/06/09 02:59:28;;;;;;;50.35;24.33;;;14.20;99.90;;;;;;5068556;28;20039;-73
2022/06/09 03:01:53;;;;;;;49.20;23.20;;;14.20;99.90;;;;;;5069556;28;20188;-73
2022/06/09 03:04:19;;;;;;;45.50;23.75;;;14.20;99.90;;;;;;5050235;28;20052;-73
2022/06/09 03:06:45;;;;;;;43.50;25.08;;;14.10;99.90;;;;;;5067086;28;20063;-73
2022/06/09 03:09:10;;;;;;;47.80;24.52;;;14.20;99.90;;;;;;5066403;28;20036;-73
2022/06/09 03:11:37;;;;;;;46.67;24.48;;;14.10;99.90;;;;;;5068520;28;20044;-72
2022/06/09 03:14:03;;;;;;;44.67;23.33;;;14.20;99.90;;;;;;5066235;28;20059;-73
2022/06/09 03:16:28;;;;;;;48.80;24.23;;;14.20;99.90;;;;;;5068519;28;20370;-73
2022/06/09 03:18:54;;;;;;;39.40;24.63;;;14.20;99.90;;;;;;5077323;28;20126;-72
2022/06/09 03:21:20;;;;;;;41.53;23.40;;;14.10;99.90;;;;;;5066523;28;20044;-73
2022/06/09 03:23:46;;;;;;;37.13;22.27;;;14.20;99.90;;;;;;5067314;28;20500;-73
2022/06/09 03:26:12;;;;;;;43.47;23.10;;;14.10;99.90;;;;;;5068666;28;20044;-73
2022/06/09 03:28:38;;;;;;;40.25;20.90;;;14.10;99.90;;;;;;5045230;28;20048;-73
2022/06/09 03:31:03;;;;;;;41.88;21.58;;;14.10;99.90;;;;;;5085369;28;20051;-73
2022/06/09 03:33:29;;;;;;;38.92;20.42;;;14.10;99.90;;;;;;5049208;28;20039;-73
2022/06/09 03:35:55;;;;;;;36.92;19.13;;;14.10;99.90;;;;;;5066882;28;20149;-73
2022/06/09 03:38:20;;;;;;;36.22;18.60;;;14.10;99.90;;;;;;5068390;28;20051;-74
2022/06/09 03:40:47;;;;;;;33.60;17.90;;;14.10;99.90;;;;;;5050181;28;21178;-73
2022/06/09 03:43:12;;;;;;;33.85;17.48;;;14.10;99.90;;;;;;5067172;28;20082;-73
2022/06/09 03:45:38;;;;;;;36.00;16.17;;;14.10;99.90;;;;;;5085517;28;20040;-73
2022/06/09 03:48:07;;;;;;;29.40;16.48;;;14.10;99.90;;;;;;5065125;28;20083;-74
2022/06/09 03:50:33;;;;;;;28.77;15.50;;;14.10;99.90;;;;;;5059508;28;20546;-74
2022/06/09 03:52:59;;;;;;;31.65;16.27;;;14.10;99.90;;;;;;5065091;28;20048;-73
2022/06/09 03:55:25;;;;;;;35.70;17.25;;;14.10;99.90;;;;;;5050913;28;20052;-73
2022/06/09 03:57:51;;;;;;;34.28;16.52;;;14.10;99.90;;;;;;5085884;28;20029;-73
2022/06/09 04:00:25;;;;;;;25.77;15.18;;;14.10;99.90;;;;;;5083177;28;20131;-73
2022/06/09 04:02:51;;;;;;;30.58;15.55;;;14.10;99.90;;;;;;5050303;28;20058;-73
2022/06/09 04:05:17;;;;;;;28.80;15.43;;;14.10;99.90;;;;;;5049050;28;20043;-73
2022/06/09 04:07:43;;;;;;;32.05;15.80;;;14.10;99.90;;;;;;5084210;28;20043;-73
2022/06/09 04:10:18;;;;;;;25.67;16.15;;;14.10;99.90;;;;;;5084602;28;20135;-74
2022/06/09 04:12:43;;;;;;;30.38;17.13;;;14.10;99.90;;;;;;5065910;28;20047;-73
2022/06/09 04:15:10;;;;;;;28.85;17.27;;;14.10;99.90;;;;;;5067359;28;20036;-73
2022/06/09 04:17:35;;;;;;;30.42;17.98;;;14.20;99.90;;;;;;5064769;28;20059;-73
2022/06/09 04:20:02;;;;;;;30.92;16.05;;;14.20;99.90;;;;;;5065279;28;20508;-73
2022/06/09 04:22:27;;;;;;;34.22;18.05;;;14.20;99.90;;;;;;5064213;28;20125;-73
2022/06/09 04:24:53;;;;;;;29.85;18.30;;;14.20;99.90;;;;;;5065406;28;20505;-74
2022/06/09 04:27:19;;;;;;;33.47;20.25;;;14.20;99.90;;;;;;5067847;28;20110;-73
2022/06/09 04:29:45;;;;;;;33.13;20.00;;;14.30;99.90;;;;;;5051206;28;20051;-73
2022/06/09 04:32:11;;;;;;;30.42;21.38;;;14.10;99.90;;;;;;5059748;28;20446;-73
2022/06/09 04:34:36;;;;;;;35.72;23.05;;;14.30;99.90;;;;;;5066952;28;20051;-73
2022/06/09 04:37:02;;;;;;;30.38;21.80;;;14.30;99.90;;;;;;5085952;28;20044;-73
2022/06/09 04:39:28;;;;;;;37.40;24.48;;;14.30;99.90;;;;;;5068211;28;20071;-73
2022/06/09 04:41:53;;;;;;;37.72;26.38;;;14.40;99.90;;;;;;5086257;28;20115;-73
2022/06/09 04:44:22;;;;;;;32.47;23.92;;;14.30;99.90;;;;;;5049432;28;20047;-73
2022/06/09 04:46:48;;;;;;;31.42;24.15;;;14.30;99.90;;;;;;5065977;28;20115;-73
2022/06/09 04:49:14;;;;;;;32.75;23.30;;;14.30;99.90;;;;;;5051025;28;20209;-73
2022/06/09 04:51:39;;;;;;;37.90;25.90;;;14.30;99.90;;;;;;5062194;28;20036;-73
2022/06/09 04:54:05;;;;;;;43.30;29.42;;;14.30;99.90;;;;;;5066076;28;20054;-73
2022/06/09 04:56:31;;;;;;;41.28;26.90;;;14.30;99.90;;;;;;5085245;28;20040;-73
2022/06/09 04:58:57;;;;;;;44.03;27.88;;;14.30;99.90;;;;;;5065546;28;20044;-73
2022/06/09 05:01:25;;;;;;;45.95;29.80;;;14.30;99.90;;;;;;5065291;28;20521;-74
2022/06/09 05:03:52;;;;;;;39.72;29.20;;;14.30;99.90;;;;;;5050169;28;20397;-73
2022/06/09 05:06:19;;;;;;;40.97;28.00;;;14.30;99.90;;;;;;5043831;28;20043;-73
2022/06/09 05:08:46;;;;;;;39.85;27.60;;;14.30;99.90;;;;;;5084922;28;20467;-73
2022/06/09 05:11:12;;;;;;;44.10;30.85;;;14.30;99.90;;;;;;5064246;28;20389;-74
2022/06/09 05:13:38;;;;;;;44.95;29.63;;;14.30;99.90;;;;;;5060416;28;20059;-74
2022/06/09 05:16:04;;;;;;;37.15;27.55;;;14.30;99.90;;;;;;5043701;28;20044;-73
2022/06/09 05:18:31;;;;;;;42.20;28.88;;;14.30;99.90;;;;;;5070811;28;20044;-74
2022/06/09 05:20:58;;;;;;;37.28;28.10;;;14.40;99.90;;;;;;5068422;28;20044;-73
2022/06/09 05:23:25;;;;;;;38.53;27.35;;;14.40;99.90;;;;;;5049296;28;20054;-74
2022/06/09 05:25:53;;;;;;;36.40;28.20;;;14.40;99.90;;;;;;5044169;28;20038;-74
2022/06/09 05:28:21;;;;;;;36.45;28.38;;;14.50;99.90;;;;;;5077863;28;20067;-73
2022/06/09 05:30:46;;;;;;;38.65;29.20;;;14.50;99.90;;;;;;5083996;28;20036;-74
2022/06/09 05:33:13;;;;;;;38.15;30.30;;;14.50;99.90;;;;;;5064165;28;20044;-73
2022/06/09 05:35:39;;;;;;;35.45;27.95;;;14.60;99.90;;;;;;5067494;28;20392;-73
2022/06/09 05:46:22;;;;;;;35.60;26.38;;;14.70;99.90;;;;;;5063240;28;20121;-73
2022/06/09 05:48:48;;;;;;;38.90;29.35;;;14.70;99.90;;;;;;5065302;28;20036;-74
2022/06/09 05:51:16;;;;;;;40.55;29.95;;;14.70;99.90;;;;;;5064366;28;20036;-73
2022/06/09 05:53:42;;;;;;;33.63;27.42;;;14.70;99.90;;;;;;5062363;28;20032;-73
2022/06/09 05:56:08;;;;;;;31.85;26.33;;;14.70;99.90;;;;;;5064630;28;20039;-74
2022/06/09 05:58:37;;;;;;;35.75;28.05;;;14.60;99.90;;;;;;5068712;28;20440;-73
2022/06/09 06:01:06;;;;;;;39.70;29.65;;;14.70;99.90;;;;;;5086577;28;20526;-73
2022/06/09 06:03:33;;;;;;;37.50;29.42;;;14.70;99.90;;;;;;5067809;28;20063;-74
2022/06/09 06:08:43;;;;;;;38.35;29.60;;;14.70;99.90;;;;;;5086304;28;20471;-74
2022/06/09 06:11:09;;;;;;;37.53;28.83;;;14.80;99.90;;;;;;5068436;28;20122;-74
2022/06/09 06:13:35;;;;;;;41.45;30.02;;;14.90;99.90;;;;;;5063862;28;20462;-73
2022/06/09 06:16:00;;;;;;;34.35;29.27;;;14.90;99.90;;;;;;5066542;28;20108;-74
2022/06/09 06:18:27;;;;;;;32.47;27.15;;;15.50;99.90;;;;;;5067299;28;20047;-74
2022/06/09 06:20:55;;;;;;;32.33;28.63;;;15.90;99.90;;;;;;5072440;28;20439;-74
2022/06/09 06:23:24;;;;;;;33.15;28.98;;;16.00;99.90;;;;;;5062672;28;20044;-74
2022/06/09 06:25:51;;;;;;;30.02;25.30;;;16.20;99.90;;;;;;5052774;28;20040;-73
2022/06/09 06:28:17;;;;;;;31.88;25.27;;;16.30;99.90;;;;;;5081512;28;20127;-75
2022/06/09 06:30:42;;;;;;;29.10;23.98;;;16.40;99.90;;;;;;5066554;28;20173;-75
2022/06/09 06:33:08;;;;;;;23.27;19.40;;;16.60;99.90;;;;;;5056625;28;20047;-74
2022/06/09 06:35:34;;;;;;;22.98;19.35;;;16.60;99.90;;;;;;5052548;28;20113;-74
2022/06/09 06:38:00;;;;;;;23.85;20.30;;;16.60;99.90;;;;;;5068681;28;20101;-74
2022/06/09 06:40:26;;;;;;;22.77;18.02;;;16.60;99.90;;;;;;5048929;28;20126;-74
2022/06/09 06:42:52;;;;;;;20.20;17.50;;;16.60;99.90;;;;;;5047355;28;20048;-74
2022/06/09 06:45:18;;;;;;;20.80;17.88;;;16.70;99.90;;;;;;5085308;28;20043;-74
2022/06/09 06:47:44;;;;;;;21.75;18.13;;;16.80;99.90;;;;;;5091046;28;20043;-74
2022/06/09 06:50:12;;;;;;;21.52;17.00;;;16.90;99.90;;;;;;5065066;28;20449;-75
2022/06/09 06:52:39;;;;;;;22.33;18.02;;;17.00;99.90;;;;;;5050587;28;20040;-75
2022/06/09 06:55:11;;;;;;;18.83;15.98;;;17.10;99.90;;;;;;5075510;28;20106;-74
2022/06/09 06:57:37;;;;;;;20.80;16.63;;;17.10;99.90;;;;;;5052786;28;20047;-75
2022/06/09 07:00:05;;;;;;;20.73;15.98;;;17.00;99.90;;;;;;5052296;28;20048;-75
2022/06/09 07:02:31;;;;;;;21.23;16.35;;;17.10;99.90;;;;;;5069421;28;20534;-75
2022/06/09 07:04:57;;;;;;;20.70;15.27;;;17.10;99.90;;;;;;5085721;28;20040;-75
2022/06/09 07:07:23;;;;;;;17.17;13.95;;;17.10;99.90;;;;;;5063654;28;20454;-75
2022/06/09 07:09:48;;;;;;;18.00;13.63;;;17.30;99.90;;;;;;5051962;28;20043;-75
2022/06/09 07:12:14;;;;;;;16.58;13.20;;;17.40;99.90;;;;;;5066514;28;20677;-76
2022/06/09 07:14:40;;;;;;;17.10;12.75;;;17.60;99.90;;;;;;5068225;28;20040;-75
2022/06/09 07:17:05;;;;;;;16.67;13.52;;;17.90;99.90;;;;;;5066619;28;20145;-75
2022/06/09 07:19:31;;;;;;;14.20;11.30;;;18.30;99.90;;;;;;5086746;28;20149;-75
2022/06/09 07:21:58;;;;;;;18.52;12.25;;;18.90;99.90;;;;;;5084985;28;20051;-75
2022/06/09 07:24:24;;;;;;;12.35;9.23;;;18.90;99.90;;;;;;5068488;28;20048;-76
2022/06/09 07:26:52;;;;;;;9.88;7.05;;;19.10;99.90;;;;;;5084718;28;20063;-76
2022/06/09 07:29:19;;;;;;;9.85;6.70;;;19.30;99.90;;;;;;5065557;28;20072;-76
2022/06/09 07:31:45;;;;;;;12.05;7.03;;;19.50;99.90;;;;;;5084988;28;20046;-75
2022/06/09 07:34:12;;;;;;;11.48;7.47;;;19.80;99.90;;;;;;5049017;28;20387;-75
2022/06/09 07:36:38;;;;;;;10.23;6.22;;;20.10;99.90;;;;;;5065929;28;20062;-76
2022/06/09 07:39:04;;;;;;;10.32;5.13;;;20.40;99.90;;;;;;5066085;28;20415;-76
2022/06/09 07:41:30;;;;;;;6.72;4.25;;;20.40;99.90;;;;;;5085957;28;20050;-76
2022/06/09 07:43:57;;;;;;;8.15;4.32;;;20.30;99.90;;;;;;5059031;28;20032;-76
2022/06/09 07:46:23;;;;;;;8.48;4.35;;;20.50;99.90;;;;;;5066418;28;20036;-76
2022/06/09 07:48:48;;;;;;;8.38;3.63;;;20.70;99.90;;;;;;5046709;28;20252;-76
2022/06/09 07:51:14;;;;;;;8.80;3.40;;;20.70;99.90;;;;;;5051468;28;20132;-76
2022/06/09 07:53:40;;;;;;;7.40;3.78;;;20.80;99.90;;;;;;5069530;28;20043;-76
2022/06/09 07:56:06;;;;;;;7.47;3.30;;;21.00;99.90;;;;;;5087826;28;20040;-75
2022/06/09 07:58:32;;;;;;;10.77;3.70;;;21.30;99.90;;;;;;5067391;28;20052;-77
2022/06/09 08:00:58;;;;;;;9.27;3.22;;;21.40;99.90;;;;;;5065763;28;20044;-75
2022/06/09 08:03:26;;;;;;;6.30;2.83;;;21.20;99.90;;;;;;5047410;28;20047;-76
2022/06/09 08:05:53;;;;;;;8.70;2.47;;;21.10;99.90;;;;;;5045590;28;20188;-76
2022/06/09 08:08:19;;;;;;;6.53;2.50;;;21.20;99.90;;;;;;5075443;28;20048;-75
2022/06/09 08:10:46;;;;;;;5.30;2.03;;;21.40;99.90;;;;;;5062150;28;20071;-75
2022/06/09 08:13:13;;;;;;;6.07;1.73;;;21.40;99.90;;;;;;5063774;28;20508;-75
2022/06/09 08:15:40;;;;;;;6.88;1.60;;;21.20;99.90;;;;;;5044671;28;20138;-74
2022/06/09 08:18:07;;;;;;;8.68;2.10;;;21.00;99.90;;;;;;5051151;28;20578;-74
2022/06/09 08:20:35;;;;;;;6.65;1.70;;;21.20;99.90;;;;;;5033645;28;20051;-74
2022/06/09 08:23:08;;;;;;;6.65;1.45;;;21.40;99.90;;;;;;5052366;28;20446;-76
2022/06/09 08:25:35;;;;;;;7.60;1.83;;;21.60;99.90;;;;;;5069473;28;20527;-74
2022/06/09 08:28:03;;;;;;;6.20;1.60;;;21.90;99.90;;;;;;5051462;28;20143;-75
2022/06/09 08:30:30;;;;;;;7.05;1.38;;;22.00;99.90;;;;;;5035116;28;20082;-75
2022/06/09 08:32:57;;;;;;;6.22;1.65;;;21.90;99.90;;;;;;5051200;28;20055;-73
2022/06/09 08:35:24;;;;;;;5.75;1.60;;;21.60;99.90;;;;;;5048849;28;20048;-74
2022/06/09 08:37:51;;;;;;;7.03;1.60;;;21.50;99.90;;;;;;5068327;28;20132;-74
2022/06/09 08:40:26;;;;;;;7.65;1.92;;;21.30;99.90;;;;;;5067344;28;20052;-74
2022/06/09 08:43:19;;;;;;;6.28;1.27;;;21.40;99.90;;;;;;5056499;28;20450;-74
2022/06/09 08:45:46;;;;;;;7.43;1.33;;;21.50;99.90;;;;;;5060375;28;20048;-75
2022/06/09 08:48:20;;;;;;;7.25;1.40;;;21.70;99.90;;;;;;5063694;28;20051;-76
2022/06/09 08:50:59;;;;;;;9.25;1.50;;;21.90;99.90;;;;;;5060074;28;20044;-75
2022/06/09 08:53:34;;;;;;;4.03;1.27;;;22.10;99.90;;;;;;5079926;28;20078;-75
2022/06/09 08:56:23;;;;;;;7.65;1.42;;;22.40;99.90;;;;;;5079238;28;20117;-74
2022/06/09 08:58:56;;;;;;;4.78;1.23;;;22.60;99.90;;;;;;5081416;28;20041;-75
2022/06/09 09:01:37;;;;;;;4.88;1.30;;;22.70;99.90;;;;;;5056364;28;20366;-74
2022/06/09 09:04:23;;;;;;;9.50;2.20;;;22.90;99.90;;;;;;5059831;28;20446;-74
2022/06/09 09:06:51;;;;;;;9.27;1.88;;;22.80;99.90;;;;;;5057148;28;20755;-74
2022/06/09 09:09:23;;;;;;;6.63;1.30;;;22.50;99.90;;;;;;5040682;28;20839;-75
2022/06/09 09:12:13;;;;;;;6.90;1.42;;;22.10;99.90;;;;;;5053509;28;20505;-74
2022/06/09 09:14:54;;;;;;;5.93;1.40;;;21.90;99.90;;;;;;5053168;28;20056;-75
2022/06/09 09:17:41;;;;;;;6.75;1.95;;;22.10;99.90;;;;;;5035618;28;20052;-74
2022/06/09 09:20:21;;;;;;;5.53;1.27;;;22.30;99.90;;;;;;5055762;28;20044;-75
2022/06/09 09:23:08;;;;;;;5.87;1.37;;;22.30;99.90;;;;;;5050333;28;20055;-74
2022/06/09 09:25:37;;;;;;;6.53;1.30;;;22.00;99.90;;;;;;5048006;28;20310;-74
2022/06/09 09:28:19;;;;;;;8.10;1.65;;;22.00;99.90;;;;;;5051062;28;20131;-76
2022/06/09 09:30:59;;;;;;;7.00;1.70;;;22.30;99.90;;;;;;5039343;28;20105;-75
2022/06/09 09:33:26;;;;;;;7.25;1.65;;;22.30;99.90;;;;;;5042809;28;20059;-74
2022/06/09 09:36:17;;;;;;;5.40;1.25;;;22.30;99.90;;;;;;5045948;28;20043;-74
2022/06/09 09:39:22;;;;;;;7.88;1.70;;;22.40;99.90;;;;;;5063502;28;20381;-76
2022/06/09 09:41:55;;;;;;;7.10;1.50;;;22.90;99.90;;;;;;5059255;28;20586;-74
2022/06/09 09:44:24;;;;;;;9.02;2.45;;;23.30;99.90;;;;;;5043675;28;20044;-74
2022/06/09 09:47:01;;;;;;;7.00;1.50;;;23.50;99.90;;;;;;5063456;28;20112;-75
2022/06/09 09:49:39;;;;;;;7.43;1.63;;;23.20;99.90;;;;;;5081484;28;20055;-76
2022/06/09 09:52:44;;;;;;;8.20;1.60;;;22.90;99.90;;;;;;5060731;28;20484;-76
2022/06/09 09:55:31;;;;;;;4.90;1.33;;;22.50;99.90;;;;;;5061994;28;20044;-76
2022/06/09 09:58:34;;;;;;;7.60;1.48;;;22.10;99.90;;;;;;5075733;28;20597;-75
2022/06/09 10:01:05;;;;;;;7.90;1.52;;;22.20;99.90;;;;;;5047249;28;20063;-75
2022/06/09 10:09:37;;;;;;;9.10;1.77;;;23.40;99.90;;;;;;5094073;28;20044;-74
2022/06/09 10:12:17;;;;;;;8.60;1.60;;;23.60;99.90;;;;;;5070367;28;20502;-75
2022/06/09 10:14:56;;;;;;;7.75;1.70;;;23.60;99.90;;;;;;5045982;28;20056;-74
2022/06/09 10:17:37;;;;;;;9.95;1.50;;;23.20;99.90;;;;;;5059988;28;20054;-75
2022/06/09 10:20:22;;;;;;;;;;;22.70;99.90;;;;;;5069966;28;20120;-75
2022/06/09 10:23:11;;;;;;;8.20;1.17;;;22.60;99.90;;;;;;5089954;28;19920;-76
2022/06/09 10:25:55;;;;;;;6.32;1.67;;;22.80;99.90;;;;;;5071446;28;20054;-74
2022/06/09 10:28:40;;;;;;;8.98;1.73;;;23.10;99.90;;;;;;5069635;28;20492;-75
2022/06/09 10:31:34;;;;;;;7.63;1.60;;;23.00;99.90;;;;;;5069273;28;20073;-74
2022/06/09 10:34:23;;;;;;;5.25;1.35;;;22.90;99.90;;;;;;5065693;28;20059;-75
2022/06/09 10:36:53;;;;;;;5.22;1.35;;;22.70;99.90;;;;;;5053744;28;20491;-75
2022/06/09 10:39:39;;;;;;;7.80;1.65;;;22.40;99.90;;;;;;5061585;28;20040;-75
2022/06/09 10:42:19;;;;;;;7.35;1.35;;;22.60;99.90;;;;;;5058430;28;20043;-75
2022/06/09 10:44:49;;;;;;;7.22;1.83;;;22.80;99.90;;;;;;5070626;28;20043;-75
2022/06/09 10:56:34;;;;;;;7.53;1.25;;;22.80;99.90;;;;;;5081723;28;20052;-75
2022/06/09 10:59:15;;;;;;;8.02;1.40;;;23.10;99.90;;;;;;5081677;28;20046;-76
2022/06/09 11:01:41;;;;;;;5.05;1.45;;;23.40;99.90;;;;;;5053565;28;20044;-77
2022/06/09 11:04:14;;;;;;;6.28;1.40;;;23.60;99.90;;;;;;5077269;28;20133;-75
2022/06/09 11:07:11;;;;;;;8.27;1.50;;;23.90;99.90;;;;;;5068726;28;20443;-75
2022/06/09 11:10:02;;;;;;;8.48;1.98;;;23.90;99.90;;;;;;5064732;28;20055;-75
2022/06/09 11:12:58;;;;;;;8.30;1.35;;;23.50;99.90;;;;;;5083446;28;20039;-76
2022/06/09 11:15:41;;;;;;;7.40;1.25;;;23.50;99.90;;;;;;5029844;28;20059;-75
2022/06/09 11:18:09;;;;;;;7.53;1.52;;;23.70;99.90;;;;;;5063523;28;20181;-74
2022/06/09 11:20:52;;;;;;;6.30;1.52;;;23.80;99.90;;;;;;5060761;28;20048;-76
2022/06/09 11:23:30;;;;;;;8.32;1.83;;;24.00;99.90;;;;;;5064200;28;20423;-75
2022/06/09 11:26:11;;;;;;;11.52;1.63;;;24.10;99.90;;;;;;5046083;28;20175;-77
2022/06/09 11:28:37;;;;;;;8.05;1.17;;;24.10;99.90;;;;;;5070672;28;20075;-75
2022/06/09 11:31:15;;;;;;;8.00;1.50;;;24.00;99.90;;;;;;5035951;28;20152;-75
2022/06/09 11:33:40;;;;;;;7.07;1.25;;;23.80;99.90;;;;;;5034066;28;20101;-73
2022/06/09 11:36:29;;;;;;;5.88;1.40;;;23.60;99.90;;;;;;5069621;28;20561;-75
2022/06/09 11:39:07;;;;;;;5.82;1.20;;;23.40;99.90;;;;;;5045786;28;20195;-76
2022/06/09 11:41:57;;;;;;;8.15;1.35;;;23.00;99.90;;;;;;5035278;28;20123;-76
2022/06/09 11:44:25;;;;;;;6.25;1.52;;;22.50;99.90;;;;;;5072858;28;20089;-75
2022/06/09 11:46:53;;;;;;;7.13;1.38;;;22.20;99.90;;;;;;5051192;28;20047;-76
2022/06/09 11:49:23;;;;;;;8.82;2.10;;;22.10;99.90;;;;;;5052688;28;20605;-76
2022/06/09 11:51:49;;;;;;;8.30;1.70;;;22.10;99.90;;;;;;5037900;28;20040;-75
2022/06/09 11:54:37;;;;;;;7.10;1.65;;;21.90;99.90;;;;;;5036181;28;20051;-76
2022/06/09 11:57:42;;;;;;;5.53;1.10;;;21.80;99.90;;;;;;5047928;28;20102;-76
2022/06/09 12:00:26;;;;;;;6.30;1.45;;;21.90;99.90;;;;;;5056021;28;20064;-75
2022/06/09 12:03:15;;;;;;;6.80;1.42;;;22.20;99.90;;;;;;5062428;28;20123;-75
2022/06/09 12:05:52;;;;;;;6.82;1.60;;;22.40;99.90;;;;;;5080739;28;20153;-75
2022/06/09 12:08:37;;;;;;;6.18;1.33;;;22.70;99.90;;;;;;5065008;28;20040;-76
2022/06/09 12:11:19;;;;;;;9.20;1.55;;;22.70;99.90;;;;;;5070011;28;20439;-76
2022/06/09 12:13:54;;;;;;;9.10;1.33;;;22.50;99.90;;;;;;5069524;28;20416;-75
2022/06/09 12:16:28;;;;;;;6.22;1.33;;;22.20;99.90;;;;;;5063089;28;20063;-75
2022/06/09 12:19:13;;;;;;;6.03;1.77;;;22.00;99.90;;;;;;5065005;28;20051;-76
2022/06/09 12:21:42;;;;;;;7.80;1.40;;;22.00;99.90;;;;;;5046511;28;20405;-76
2022/06/09 12:24:14;;;;;;;7.68;1.60;;;22.00;99.90;;;;;;5083446;28;20090;-77
2022/06/09 12:26:39;;;;;;;5.47;1.30;;;22.10;99.90;;;;;;5064580;28;20044;-77
2022/06/09 12:29:34;;;;;;;6.68;1.63;;;22.30;99.90;;;;;;5050242;28;20040;-77
2022/06/09 12:32:26;;;;;;;6.00;1.50;;;22.50;99.90;;;;;;5013024;28;20038;-76
2022/06/09 12:34:53;;;;;;;7.68;1.63;;;22.70;99.90;;;;;;5082439;28;20042;-75
2022/06/09 12:37:34;;;;;;;6.93;1.30;;;22.90;99.90;;;;;;5078656;28;20455;-76
2022/06/09 12:40:12;;;;;;;10.85;2.08;;;23.00;99.90;;;;;;5088798;28;20040;-77
2022/06/09 12:42:49;;;;;;;8.00;1.92;;;23.10;99.90;;;;;;5068732;28;20409;-76
2022/06/09 12:45:26;;;;;;;8.18;1.67;;;23.00;99.90;;;;;;5088640;28;20076;-75
2022/06/09 12:48:12;;;;;;;5.80;1.52;;;22.90;99.90;;;;;;5070102;28;20050;-73
2022/06/09 12:50:52;;;;;;;10.30;1.70;;;22.90;99.90;;;;;;5067304;28;20056;-75
2022/06/09 12:53:31;;;;;;;5.35;1.70;;;22.80;99.90;;;;;;5083781;28;20075;-75
2022/06/09 12:56:02;;;;;;;8.05;1.45;;;22.70;99.90;;;;;;5065875;28;20050;-78
2022/06/09 12:58:36;;;;;;;7.03;1.40;;;22.70;99.90;;;;;;5068400;28;20043;-76
2022/06/09 13:01:08;;;;;;;8.82;2.20;;;22.70;99.90;;;;;;5046282;28;20048;-76
2022/06/09 13:04:00;;;;;;;7.13;1.42;;;22.60;99.90;;;;;;5064957;28;20040;-77
2022/06/09 13:06:27;;;;;;;10.25;1.92;;;22.40;99.90;;;;;;5060579;28;20074;-76
2022/06/09 13:08:58;;;;;;;7.88;2.10;;;22.00;99.90;;;;;;5047548;28;20073;-76
2022/06/09 13:14:25;;;;;;;10.45;1.90;;;21.60;99.90;;;;;;5060682;28;20641;-76
2022/06/09 13:16:55;;;;;;;6.68;1.60;;;21.60;99.90;;;;;;5061941;28;20514;-75
2022/06/09 13:19:25;;;;;;;9.30;2.13;;;21.60;99.90;;;;;;5046686;28;20050;-75
2022/06/09 13:21:52;;;;;;;9.90;2.40;;;21.70;99.90;;;;;;5062379;28;20139;-77
2022/06/09 13:24:23;;;;;;;6.20;1.38;;;21.90;99.90;;;;;;5044927;28;20032;-75
2022/06/09 13:26:50;;;;;;;7.45;1.70;;;22.00;99.90;;;;;;5063754;28;20040;-76